Time;durP1;ratioP1;P1;durP2;ratioP2;P2;SDS_P1;SDS_P2;PMS_P1;PMS_P2;Temp;Humidity;BMP_temperature;BMP_pressure;BME280_temperature;BME280_humidity;BME280_pressure;Samples;Min_cycle;Max_cycle;Signal;HPM_P1;HPM_P2
2022/10/17 00:01:22;;;;;;;8.93;4.05;;;13.30;99.90;;;;;;4986202;28;20034;-74
2022/10/17 00:03:47;;;;;;;10.73;3.88;;;13.30;99.90;;;;;;4974128;28;20022;-74
2022/10/17 00:06:14;;;;;;;7.95;3.45;;;13.30;99.90;;;;;;4988149;28;20034;-75
2022/10/17 00:08:41;;;;;;;6.28;3.40;;;13.30;99.90;;;;;;4994122;28;20039;-74
2022/10/17 00:11:13;;;;;;;8.07;3.75;;;13.30;99.90;;;;;;4984456;28;20130;-75
2022/10/17 00:13:39;;;;;;;7.50;3.28;;;13.30;99.90;;;;;;4975373;28;21152;-74
2022/10/17 00:16:06;;;;;;;7.88;3.20;;;13.40;99.90;;;;;;4990683;28;20576;-75
2022/10/17 00:18:31;;;;;;;9.07;3.63;;;13.40;99.90;;;;;;4988088;28;20093;-74
2022/10/17 00:20:57;;;;;;;5.68;2.70;;;13.40;99.90;;;;;;4981785;28;20171;-74
2022/10/17 00:23:23;;;;;;;10.88;3.88;;;13.40;99.90;;;;;;4988411;28;20030;-74
2022/10/17 00:26:00;;;;;;;9.65;3.38;;;13.40;99.90;;;;;;4993124;28;20109;-74
2022/10/17 00:28:26;;;;;;;8.90;3.20;;;13.40;99.90;;;;;;4978195;28;20034;-74
2022/10/17 00:31:00;;;;;;;7.53;3.38;;;13.40;99.90;;;;;;4993990;28;20090;-75
2022/10/17 00:33:27;;;;;;;11.00;3.60;;;13.50;99.90;;;;;;4992121;28;20166;-74
2022/10/17 00:36:12;;;;;;;8.65;3.20;;;13.40;99.90;;;;;;4997024;28;20106;-74
2022/10/17 00:38:38;;;;;;;4.82;2.83;;;13.50;99.90;;;;;;4973529;28;20133;-75
2022/10/17 00:41:07;;;;;;;6.93;3.30;;;13.50;99.90;;;;;;4994818;28;20022;-75
2022/10/17 00:43:51;;;;;;;6.40;2.90;;;13.50;99.90;;;;;;4991849;28;20034;-74
2022/10/17 00:46:17;;;;;;;6.85;3.42;;;13.50;99.90;;;;;;4975539;28;20101;-74
2022/10/17 00:48:43;;;;;;;6.20;3.33;;;13.50;99.90;;;;;;5000072;28;20064;-74
2022/10/17 00:51:09;;;;;;;4.60;2.90;;;13.50;99.90;;;;;;4992327;28;20026;-75
2022/10/17 00:53:38;;;;;;;5.82;3.35;;;13.50;99.90;;;;;;4994367;28;20076;-75
2022/10/17 00:56:04;;;;;;;6.38;3.13;;;13.50;99.90;;;;;;4994282;28;20093;-74
2022/10/17 00:58:30;;;;;;;7.07;3.00;;;13.50;99.90;;;;;;4993848;28;20023;-74
2022/10/17 01:00:56;;;;;;;6.32;2.97;;;13.60;99.90;;;;;;4989566;28;20682;-74
2022/10/17 01:03:22;;;;;;;7.85;3.47;;;13.50;99.90;;;;;;4962128;28;20037;-74
2022/10/17 01:05:47;;;;;;;7.43;3.00;;;13.60;99.90;;;;;;4990742;28;20068;-75
2022/10/17 01:08:13;;;;;;;7.57;3.58;;;13.60;99.90;;;;;;4986765;28;20479;-74
2022/10/17 01:11:01;;;;;;;6.72;3.10;;;13.60;99.90;;;;;;4987250;28;20097;-74
2022/10/17 01:13:41;;;;;;;6.07;3.30;;;13.60;99.90;;;;;;4990994;28;20101;-73
2022/10/17 01:16:47;;;;;;;7.55;3.30;;;13.60;99.90;;;;;;4987418;28;20110;-72
2022/10/17 01:19:40;;;;;;;6.78;3.20;;;13.60;99.90;;;;;;4989208;28;20105;-74
2022/10/17 01:22:15;;;;;;;8.35;3.78;;;13.60;99.90;;;;;;4974777;28;20486;-73
2022/10/17 01:25:11;;;;;;;6.60;2.97;;;13.60;99.90;;;;;;4989730;28;20085;-73
2022/10/17 01:27:55;;;;;;;7.13;3.58;;;13.60;99.90;;;;;;4983154;28;20153;-73
2022/10/17 01:30:51;;;;;;;7.82;2.85;;;13.60;99.90;;;;;;4989741;28;20034;-73
2022/10/17 01:33:36;;;;;;;8.02;3.10;;;13.60;99.90;;;;;;4993698;28;20034;-73
2022/10/17 01:36:26;;;;;;;4.10;3.10;;;13.60;99.90;;;;;;4990661;28;20034;-73
2022/10/17 01:39:10;;;;;;;6.07;3.35;;;13.60;99.90;;;;;;4973495;28;20022;-73
2022/10/17 01:41:46;;;;;;;6.45;3.17;;;13.60;99.90;;;;;;4973560;28;20026;-74
2022/10/17 01:44:34;;;;;;;5.53;3.20;;;13.60;99.90;;;;;;4977803;28;20048;-74
2022/10/17 01:47:06;;;;;;;6.20;2.88;;;13.60;99.90;;;;;;4981868;28;20034;-74
2022/10/17 01:49:35;;;;;;;7.72;3.08;;;13.60;99.90;;;;;;4990341;28;20031;-74
2022/10/17 01:52:07;;;;;;;6.18;3.22;;;13.60;99.90;;;;;;4995375;28;20514;-74
2022/10/17 01:54:44;;;;;;;10.63;3.40;;;13.60;99.90;;;;;;4991780;28;20030;-74
2022/10/17 01:57:38;;;;;;;5.18;3.10;;;13.60;99.90;;;;;;4985764;28;20406;-76
2022/10/17 02:00:10;;;;;;;8.13;3.13;;;13.50;99.90;;;;;;4991816;28;20113;-74
2022/10/17 02:02:36;;;;;;;5.88;3.17;;;13.60;99.90;;;;;;4991750;28;20037;-74
2022/10/17 02:05:03;;;;;;;5.55;2.70;;;13.60;99.90;;;;;;4981828;28;20042;-74
2022/10/17 02:07:28;;;;;;;7.10;2.90;;;13.60;99.90;;;;;;4974353;28;20030;-74
2022/10/17 02:09:54;;;;;;;6.57;2.97;;;13.60;99.90;;;;;;4971144;28;20479;-75
2022/10/17 02:12:47;;;;;;;5.63;2.95;;;13.60;99.90;;;;;;4992689;28;20027;-74
2022/10/17 02:15:38;;;;;;;8.10;2.75;;;13.60;99.90;;;;;;4991263;28;20023;-74
2022/10/17 02:18:13;;;;;;;5.85;2.72;;;13.60;99.90;;;;;;4987336;28;20030;-74
2022/10/17 02:20:59;;;;;;;5.68;2.50;;;13.50;99.90;;;;;;4974259;28;20029;-74
2022/10/17 02:23:53;;;;;;;8.68;3.03;;;13.60;99.90;;;;;;4993852;28;20033;-74
2022/10/17 02:26:25;;;;;;;6.55;2.60;;;13.60;99.90;;;;;;4984312;28;20080;-74
2022/10/17 02:28:57;;;;;;;6.38;2.72;;;13.50;99.90;;;;;;4987089;28;20022;-74
2022/10/17 02:31:33;;;;;;;4.80;3.05;;;13.50;99.90;;;;;;4990703;28;20525;-74
2022/10/17 02:34:03;;;;;;;5.47;2.97;;;13.60;99.90;;;;;;4990319;28;20053;-74
2022/10/17 02:36:37;;;;;;;6.95;2.75;;;13.50;99.90;;;;;;4992527;28;20030;-74
2022/10/17 02:39:05;;;;;;;7.65;2.60;;;13.50;99.90;;;;;;4970342;28;20030;-74
2022/10/17 02:41:32;;;;;;;6.85;2.53;;;13.50;99.90;;;;;;4993622;28;20614;-74
2022/10/17 02:44:01;;;;;;;4.55;2.13;;;13.50;99.90;;;;;;4975298;28;20462;-74
2022/10/17 02:46:28;;;;;;;8.25;2.78;;;13.60;99.90;;;;;;4990973;28;20035;-75
2022/10/17 02:49:01;;;;;;;6.63;2.55;;;13.60;99.90;;;;;;4993853;28;20081;-75
2022/10/17 02:51:34;;;;;;;4.28;2.20;;;13.50;99.90;;;;;;4958540;28;20030;-74
2022/10/17 02:54:03;;;;;;;9.40;3.05;;;13.60;99.90;;;;;;4989161;28;20057;-74
2022/10/17 02:56:34;;;;;;;7.60;2.80;;;13.50;99.90;;;;;;4987777;28;20569;-74
2022/10/17 02:59:04;;;;;;;7.97;2.70;;;13.50;99.90;;;;;;4987955;28;20411;-74
2022/10/17 03:01:30;;;;;;;3.90;2.25;;;13.50;99.90;;;;;;4981008;28;20038;-74
2022/10/17 03:04:10;;;;;;;7.60;2.47;;;13.60;99.90;;;;;;4987246;28;20081;-74
2022/10/17 03:06:36;;;;;;;5.63;2.40;;;13.60;99.90;;;;;;4990613;28;20034;-74
2022/10/17 03:09:02;;;;;;;4.90;2.45;;;13.60;99.90;;;;;;4955930;28;20653;-74
2022/10/17 03:11:28;;;;;;;3.85;2.10;;;13.60;99.90;;;;;;4988740;28;20111;-74
2022/10/17 03:13:54;;;;;;;7.10;2.67;;;13.60;99.90;;;;;;4993574;28;20049;-75
2022/10/17 03:16:19;;;;;;;5.40;2.10;;;13.60;99.90;;;;;;4986028;28;20371;-74
2022/10/17 03:18:45;;;;;;;4.82;2.72;;;13.60;99.90;;;;;;4970328;28;20039;-74
2022/10/17 03:21:11;;;;;;;8.20;2.58;;;13.60;99.90;;;;;;4969739;28;20022;-75
2022/10/17 03:23:37;;;;;;;5.97;2.20;;;13.60;99.90;;;;;;4971447;28;20054;-75
2022/10/17 03:26:04;;;;;;;7.57;2.88;;;13.60;99.90;;;;;;4956805;28;21804;-74
2022/10/17 03:28:29;;;;;;;5.15;2.28;;;13.50;99.90;;;;;;4986087;28;20026;-75
2022/10/17 03:30:55;;;;;;;4.88;2.78;;;13.50;99.90;;;;;;4972626;28;20034;-74
2022/10/17 03:33:21;;;;;;;6.82;2.97;;;13.50;99.90;;;;;;4995598;28;20069;-74
2022/10/17 03:35:47;;;;;;;5.53;2.53;;;13.50;99.90;;;;;;4990081;28;20025;-75
2022/10/17 03:38:12;;;;;;;3.58;2.15;;;13.50;99.90;;;;;;4969313;28;20078;-74
2022/10/17 03:40:38;;;;;;;5.53;2.45;;;13.50;99.90;;;;;;4984668;28;20490;-74
2022/10/17 03:43:03;;;;;;;4.53;2.30;;;13.50;99.90;;;;;;4990330;28;20045;-74
2022/10/17 03:45:29;;;;;;;6.40;2.60;;;13.50;99.90;;;;;;4996410;28;20041;-74
2022/10/17 03:47:55;;;;;;;5.35;2.15;;;13.50;99.90;;;;;;4987864;28;20058;-74
2022/10/17 03:50:21;;;;;;;6.90;2.42;;;13.50;99.90;;;;;;4969886;28;20042;-74
2022/10/17 03:52:47;;;;;;;3.30;2.20;;;13.50;99.90;;;;;;4994389;28;20117;-74
2022/10/17 03:55:13;;;;;;;4.18;2.25;;;13.50;99.90;;;;;;4977044;28;20026;-75
2022/10/17 03:57:39;;;;;;;5.60;2.42;;;13.50;99.90;;;;;;4972935;28;20121;-73
2022/10/17 04:00:06;;;;;;;5.88;2.67;;;13.50;99.90;;;;;;4995606;28;20062;-74
2022/10/17 04:02:31;;;;;;;5.55;2.35;;;13.50;99.90;;;;;;4990279;28;20502;-74
2022/10/17 04:04:57;;;;;;;4.40;2.17;;;13.50;99.90;;;;;;4989029;28;20030;-75
2022/10/17 04:07:23;;;;;;;2.20;2.00;;;13.50;99.90;;;;;;4988094;28;20383;-74
2022/10/17 04:09:48;;;;;;;6.75;2.83;;;13.50;99.90;;;;;;4969567;28;20093;-73
2022/10/17 04:12:14;;;;;;;5.63;2.38;;;13.50;99.90;;;;;;4989584;28;20405;-74
2022/10/17 04:14:40;;;;;;;5.78;2.22;;;13.50;99.90;;;;;;4980859;28;20023;-75
2022/10/17 04:17:05;;;;;;;4.00;2.20;;;13.50;99.90;;;;;;4995888;28;20034;-74
2022/10/17 04:19:31;;;;;;;5.60;2.40;;;13.50;99.90;;;;;;4992293;28;20018;-74
2022/10/17 04:21:57;;;;;;;7.43;2.60;;;13.50;99.90;;;;;;4990503;28;20022;-74
2022/10/17 04:24:24;;;;;;;5.25;2.97;;;13.50;99.90;;;;;;4976734;28;20061;-74
2022/10/17 04:26:50;;;;;;;7.13;3.72;;;13.50;99.90;;;;;;4974648;28;20101;-74
2022/10/17 04:29:16;;;;;;;6.15;2.50;;;13.50;99.90;;;;;;4996707;28;20034;-75
2022/10/17 04:31:42;;;;;;;4.20;2.78;;;13.50;99.90;;;;;;4975375;28;20053;-74
2022/10/17 04:34:07;;;;;;;6.45;2.45;;;13.50;99.90;;;;;;4997142;28;20026;-74
2022/10/17 04:36:33;;;;;;;6.35;2.50;;;13.50;99.90;;;;;;4972207;28;20110;-74
2022/10/17 04:39:02;;;;;;;6.38;3.25;;;13.50;99.90;;;;;;4993662;28;20026;-75
2022/10/17 04:41:28;;;;;;;7.00;2.38;;;13.50;99.90;;;;;;4988154;28;20027;-75
2022/10/17 04:43:53;;;;;;;3.63;2.47;;;13.50;99.90;;;;;;4999809;28;20044;-74
2022/10/17 04:46:19;;;;;;;4.00;2.60;;;13.50;99.90;;;;;;4958971;28;20056;-75
2022/10/17 04:48:46;;;;;;;3.95;2.40;;;13.50;99.90;;;;;;4994393;28;20560;-74
2022/10/17 04:51:14;;;;;;;4.18;2.38;;;13.50;99.90;;;;;;4980711;28;20074;-74
2022/10/17 04:53:42;;;;;;;3.78;2.13;;;13.40;99.90;;;;;;4988662;28;20030;-73
2022/10/17 04:56:16;;;;;;;5.10;2.40;;;13.40;99.90;;;;;;4972628;28;20061;-74
2022/10/17 04:58:43;;;;;;;2.78;1.92;;;13.40;99.90;;;;;;4972529;28;20101;-74
2022/10/17 05:01:18;;;;;;;6.90;2.67;;;13.40;99.90;;;;;;4991867;28;20114;-74
2022/10/17 05:03:45;;;;;;;2.90;2.05;;;13.40;99.90;;;;;;4989952;28;20030;-74
2022/10/17 05:06:36;;;;;;;3.47;2.10;;;13.40;99.90;;;;;;4991817;28;20121;-75
2022/10/17 05:09:02;;;;;;;3.25;2.05;;;13.30;99.90;;;;;;4981060;28;20031;-73
2022/10/17 05:11:28;;;;;;;6.28;2.50;;;13.40;99.90;;;;;;4983919;28;20038;-73
2022/10/17 05:13:57;;;;;;;3.10;1.92;;;13.40;99.90;;;;;;4992055;28;20030;-73
2022/10/17 05:16:24;;;;;;;5.85;2.35;;;13.40;99.90;;;;;;4997593;28;20054;-73
2022/10/17 05:18:52;;;;;;;3.00;2.28;;;13.40;99.90;;;;;;4972954;28;20026;-73
2022/10/17 05:21:18;;;;;;;6.78;2.08;;;13.30;99.90;;;;;;4990946;28;20037;-73
2022/10/17 05:23:44;;;;;;;3.53;2.50;;;13.30;99.90;;;;;;4994337;28;20030;-73
2022/10/17 05:26:10;;;;;;;4.47;2.05;;;13.30;99.90;;;;;;4985947;28;20344;-73
2022/10/17 05:28:35;;;;;;;5.00;2.40;;;13.30;99.90;;;;;;4987620;28;20041;-73
2022/10/17 05:31:03;;;;;;;4.63;3.08;;;13.30;99.90;;;;;;4988749;28;20062;-73
2022/10/17 05:33:29;;;;;;;6.53;2.50;;;13.30;99.90;;;;;;4975389;28;20054;-73
2022/10/17 05:35:55;;;;;;;6.60;2.60;;;13.30;99.90;;;;;;4989041;28;20413;-74
2022/10/17 05:38:21;;;;;;;6.90;2.53;;;13.30;99.90;;;;;;4979408;28;20030;-74
2022/10/17 05:40:46;;;;;;;5.38;2.70;;;13.30;99.90;;;;;;4987544;28;20022;-74
2022/10/17 05:43:13;;;;;;;6.10;2.80;;;13.30;99.90;;;;;;4990532;28;20352;-74
2022/10/17 05:45:40;;;;;;;4.90;2.85;;;13.30;99.90;;;;;;4975996;28;20121;-74
2022/10/17 05:48:08;;;;;;;8.73;3.22;;;13.20;99.90;;;;;;4991514;28;20041;-74
2022/10/17 05:50:34;;;;;;;5.00;2.60;;;13.20;99.90;;;;;;4988510;28;20070;-75
2022/10/17 05:53:00;;;;;;;7.55;2.83;;;13.20;99.90;;;;;;4991918;28;20034;-75
2022/10/17 05:55:26;;;;;;;5.53;3.28;;;13.20;99.90;;;;;;4953149;28;20030;-74
2022/10/17 05:57:52;;;;;;;6.15;2.95;;;13.20;99.90;;;;;;4980350;28;20025;-75
2022/10/17 06:00:19;;;;;;;8.77;3.20;;;13.20;99.90;;;;;;4990276;28;20114;-74
2022/10/17 06:02:46;;;;;;;4.03;2.60;;;13.20;99.90;;;;;;4991399;28;20037;-74
2022/10/17 06:05:13;;;;;;;6.22;2.88;;;13.20;99.90;;;;;;4972101;28;20079;-73
2022/10/17 06:07:39;;;;;;;7.43;3.22;;;13.20;99.90;;;;;;4972149;28;20062;-74
2022/10/17 06:10:05;;;;;;;4.38;2.90;;;13.20;99.90;;;;;;4953773;28;20062;-74
2022/10/17 06:12:31;;;;;;;6.35;3.00;;;13.20;99.90;;;;;;4981044;28;20133;-73
2022/10/17 06:14:57;;;;;;;4.20;2.83;;;13.20;99.90;;;;;;4975993;28;20145;-73
2022/10/17 06:17:23;;;;;;;7.40;3.38;;;13.10;99.90;;;;;;4980529;28;20039;-75
2022/10/17 06:19:49;;;;;;;11.18;3.70;;;13.20;99.90;;;;;;4955802;28;20047;-72
2022/10/17 06:22:15;;;;;;;6.60;3.38;;;13.20;99.90;;;;;;4984984;28;20298;-72
2022/10/17 06:24:41;;;;;;;4.80;3.22;;;13.20;99.90;;;;;;4958105;28;20034;-74
2022/10/17 06:27:07;;;;;;;8.18;3.65;;;13.20;99.90;;;;;;4992090;28;20117;-74
2022/10/17 06:29:33;;;;;;;8.93;3.85;;;13.20;99.90;;;;;;4958005;28;20026;-74
2022/10/17 06:31:59;;;;;;;6.88;3.22;;;13.20;99.90;;;;;;4976341;28;20044;-74
2022/10/17 06:34:25;;;;;;;5.72;3.15;;;13.30;99.90;;;;;;4961051;28;20606;-74
2022/10/17 06:36:52;;;;;;;8.43;3.85;;;13.30;99.90;;;;;;4964972;28;20709;-75
2022/10/17 06:39:18;;;;;;;7.30;3.38;;;13.30;99.90;;;;;;4960658;28;20030;-74
2022/10/17 06:41:44;;;;;;;8.38;3.88;;;13.30;99.90;;;;;;4954892;28;20031;-74
2022/10/17 06:44:10;;;;;;;10.05;3.85;;;13.30;99.90;;;;;;4964422;28;20070;-74
2022/10/17 06:46:39;;;;;;;11.70;3.72;;;13.30;99.90;;;;;;4967707;28;20030;-74
2022/10/17 06:49:06;;;;;;;7.20;2.20;;;13.30;99.90;;;;;;4978812;28;20636;-74
2022/10/17 06:51:36;;;;;;;5.38;3.90;;;13.40;99.90;;;;;;4979811;28;20046;-74
2022/10/17 06:54:02;;;;;;;10.80;3.83;;;14.10;99.90;;;;;;4981209;28;20107;-74
2022/10/17 06:56:28;;;;;;;6.75;3.80;;;13.90;99.90;;;;;;4966360;28;20680;-74
2022/10/17 06:58:54;;;;;;;9.60;4.15;;;13.70;99.90;;;;;;4969284;28;20026;-74
2022/10/17 07:01:20;;;;;;;8.13;3.90;;;13.60;99.90;;;;;;4976281;28;20058;-75
2022/10/17 07:03:49;;;;;;;10.02;3.70;;;13.60;99.90;;;;;;4966597;28;20463;-74
2022/10/17 07:06:14;;;;;;;7.95;4.10;;;13.60;99.90;;;;;;4983360;28;20030;-74
2022/10/17 07:08:44;;;;;;;7.05;3.53;;;13.60;99.90;;;;;;4990373;28;20105;-73
2022/10/17 07:11:12;;;;;;;10.38;3.58;;;13.70;99.90;;;;;;4990477;28;20547;-74
2022/10/17 07:13:38;;;;;;;4.35;3.20;;;13.70;99.90;;;;;;4983653;28;20060;-74
2022/10/17 07:16:04;;;;;;;6.93;3.50;;;13.70;99.90;;;;;;4970433;28;20034;-76
2022/10/17 07:18:30;;;;;;;6.72;3.40;;;13.80;99.90;;;;;;4989103;28;20415;-74
2022/10/17 07:20:56;;;;;;;9.85;5.43;;;13.80;99.90;;;;;;4987994;28;20023;-73
2022/10/17 07:23:22;;;;;;;7.35;3.88;;;13.80;99.90;;;;;;4991027;28;20037;-73
2022/10/17 07:25:48;;;;;;;4.47;3.97;;;13.90;99.90;;;;;;4979704;28;20159;-76
2022/10/17 07:28:15;;;;;;;4.68;3.20;;;14.00;99.90;;;;;;4988725;28;20030;-73
2022/10/17 07:30:41;;;;;;;5.68;3.30;;;14.10;99.90;;;;;;4962084;28;20116;-75
2022/10/17 07:33:07;;;;;;;6.85;3.67;;;14.10;99.90;;;;;;4967839;28;20056;-74
2022/10/17 07:35:33;;;;;;;5.45;3.10;;;14.20;99.90;;;;;;4973396;28;20081;-75
2022/10/17 07:37:59;;;;;;;4.97;2.83;;;14.20;99.90;;;;;;4972817;28;20660;-74
2022/10/17 07:40:24;;;;;;;5.22;3.65;;;14.20;99.90;;;;;;4975075;28;20435;-74
2022/10/17 07:42:50;;;;;;;5.90;3.40;;;14.20;99.90;;;;;;4987143;28;20494;-74
2022/10/17 07:45:16;;;;;;;7.05;3.30;;;14.20;99.90;;;;;;4991513;28;20109;-74
2022/10/17 07:47:42;;;;;;;5.03;2.65;;;14.20;99.90;;;;;;4991552;28;20102;-75
2022/10/17 07:50:08;;;;;;;5.65;3.63;;;14.20;99.90;;;;;;4975879;28;20041;-74
2022/10/17 07:52:34;;;;;;;7.00;3.63;;;14.20;99.90;;;;;;4977617;28;20033;-74
2022/10/17 07:54:59;;;;;;;5.93;3.72;;;14.20;99.90;;;;;;4992238;28;20030;-75
2022/10/17 07:57:25;;;;;;;6.25;3.80;;;14.20;99.90;;;;;;4979761;28;20445;-75
2022/10/17 07:59:53;;;;;;;5.57;3.55;;;14.20;99.90;;;;;;4993444;28;20018;-74
2022/10/17 08:02:26;;;;;;;5.93;3.75;;;14.40;99.90;;;;;;4975550;28;20030;-74
2022/10/17 08:04:53;;;;;;;5.28;3.72;;;14.60;99.90;;;;;;4995938;28;20034;-74
2022/10/17 08:07:19;;;;;;;5.82;3.13;;;14.60;99.90;;;;;;4994170;28;20106;-74
2022/10/17 08:09:46;;;;;;;4.35;3.05;;;14.80;99.90;;;;;;4992243;28;20026;-75
2022/10/17 08:12:15;;;;;;;5.97;3.40;;;14.90;99.90;;;;;;4990069;28;20077;-75
2022/10/17 08:14:42;;;;;;;5.57;3.60;;;15.00;99.90;;;;;;4993502;28;20131;-74
2022/10/17 08:17:08;;;;;;;5.68;3.17;;;15.00;99.90;;;;;;4972687;28;20442;-75
2022/10/17 08:19:39;;;;;;;5.53;3.55;;;15.10;99.90;;;;;;4990228;28;21026;-76
2022/10/17 08:22:05;;;;;;;6.10;2.90;;;15.20;99.90;;;;;;4979185;28;20104;-74
2022/10/17 08:24:32;;;;;;;5.32;2.88;;;15.20;99.90;;;;;;4992655;28;20788;-74
2022/10/17 08:26:59;;;;;;;5.20;3.17;;;15.20;99.90;;;;;;4975321;28;20086;-75
2022/10/17 08:29:25;;;;;;;4.40;3.00;;;15.20;99.90;;;;;;4977016;28;20101;-74
2022/10/17 08:31:51;;;;;;;6.18;3.58;;;15.20;99.90;;;;;;4997827;28;20022;-75
2022/10/17 08:34:17;;;;;;;4.78;3.65;;;15.20;99.90;;;;;;4976001;28;20026;-74
2022/10/17 08:36:43;;;;;;;5.55;3.60;;;15.20;99.90;;;;;;4994093;28;20058;-74
2022/10/17 08:39:09;;;;;;;5.55;3.92;;;15.20;99.90;;;;;;4972186;28;20026;-74
2022/10/17 08:41:37;;;;;;;6.85;3.42;;;15.30;99.90;;;;;;4958382;28;20591;-74
2022/10/17 08:44:15;;;;;;;4.80;3.33;;;15.30;99.90;;;;;;4996528;28;20111;-74
2022/10/17 08:46:46;;;;;;;5.45;3.10;;;15.40;99.90;;;;;;4990888;28;20032;-75
2022/10/17 08:49:22;;;;;;;5.40;3.20;;;15.40;99.90;;;;;;4995380;28;20058;-74
2022/10/17 08:52:04;;;;;;;6.45;3.45;;;15.50;99.90;;;;;;4993258;28;20039;-76
2022/10/17 08:54:50;;;;;;;10.10;4.20;;;15.50;99.90;;;;;;4994686;28;20023;-75
2022/10/17 08:57:16;;;;;;;6.28;4.00;;;15.60;99.90;;;;;;4994118;28;20050;-75
2022/10/17 08:59:48;;;;;;;7.22;3.60;;;15.60;99.90;;;;;;4992750;28;20081;-74
2022/10/17 09:02:33;;;;;;;9.23;5.18;;;15.70;99.90;;;;;;4991952;28;20053;-75
2022/10/17 09:05:02;;;;;;;5.55;3.63;;;15.80;99.90;;;;;;4992321;28;20027;-74
2022/10/17 09:07:42;;;;;;;6.00;4.03;;;15.90;99.90;;;;;;4976960;28;20090;-74
2022/10/17 09:10:29;;;;;;;4.68;3.40;;;16.00;99.90;;;;;;4987236;28;20518;-74
2022/10/17 09:12:58;;;;;;;9.23;3.13;;;16.20;99.90;;;;;;4990225;28;20026;-75
2022/10/17 09:15:40;;;;;;;6.60;3.30;;;16.30;99.90;;;;;;4994843;28;20080;-74
2022/10/17 09:18:30;;;;;;;6.45;2.88;;;16.50;99.90;;;;;;4994549;28;20409;-75
2022/10/17 09:21:21;;;;;;;4.25;3.25;;;16.50;99.90;;;;;;4987400;28;20040;-74
2022/10/17 09:23:49;;;;;;;;;;;16.60;99.90;;;;;;4964897;28;20053;-75
2022/10/17 09:26:15;;;;;;;3.97;2.75;;;16.70;99.90;;;;;;4994265;28;20368;-74
2022/10/17 09:28:42;;;;;;;5.15;3.13;;;16.70;99.90;;;;;;4990944;28;20030;-75
2022/10/17 09:31:27;;;;;;;4.43;2.67;;;16.70;99.90;;;;;;4989059;28;20030;-76
2022/10/17 09:33:55;;;;;;;4.95;2.83;;;16.70;99.90;;;;;;4989138;28;20596;-76
2022/10/17 09:36:38;;;;;;;4.05;3.00;;;16.70;99.90;;;;;;4997206;28;20053;-74
2022/10/17 09:39:15;;;;;;;8.63;3.75;;;16.70;99.90;;;;;;4995880;28;20030;-75
2022/10/17 09:41:43;;;;;;;5.72;3.10;;;16.80;99.90;;;;;;4977412;28;20553;-75
2022/10/17 09:44:18;;;;;;;7.30;3.25;;;16.80;99.90;;;;;;4995770;28;20482;-75
2022/10/17 09:47:15;;;;;;;5.28;2.67;;;16.80;99.90;;;;;;4990245;28;20036;-75
2022/10/17 09:49:43;;;;;;;7.80;3.10;;;17.00;99.90;;;;;;4970056;28;20066;-75
2022/10/17 09:52:25;;;;;;;5.28;3.25;;;17.20;99.90;;;;;;4955113;28;20092;-75
2022/10/17 09:54:53;;;;;;;9.75;3.20;;;17.50;99.90;;;;;;4967800;28;20384;-75
2022/10/17 09:57:20;;;;;;;8.23;3.40;;;17.70;99.90;;;;;;4972753;28;20494;-75
2022/10/17 09:59:54;;;;;;;4.22;3.17;;;17.80;99.90;;;;;;4990135;28;20189;-75
2022/10/17 10:02:24;;;;;;;5.93;3.00;;;17.80;99.90;;;;;;4989533;28;20113;-75
2022/10/17 10:04:50;;;;;;;7.95;3.38;;;17.90;99.90;;;;;;4975482;28;20092;-75
2022/10/17 10:07:18;;;;;;;4.70;3.33;;;18.00;99.90;;;;;;4969586;28;20663;-75
2022/10/17 10:09:46;;;;;;;5.80;3.30;;;18.00;99.90;;;;;;4980924;28;20675;-75
2022/10/17 10:12:34;;;;;;;5.18;2.90;;;18.00;99.90;;;;;;4996053;28;20102;-75
2022/10/17 10:15:00;;;;;;;4.82;3.05;;;18.00;99.90;;;;;;4991719;28;20022;-74
2022/10/17 10:17:40;;;;;;;4.80;3.05;;;18.00;99.90;;;;;;4987319;28;20030;-76
2022/10/17 10:20:30;;;;;;;5.07;3.33;;;18.10;99.90;;;;;;4986385;28;20438;-74
2022/10/17 10:23:13;;;;;;;5.10;2.88;;;18.00;99.90;;;;;;4980560;28;20044;-75
2022/10/17 10:26:03;;;;;;;5.03;3.08;;;18.20;99.90;;;;;;4986698;28;20023;-75
2022/10/17 10:28:31;;;;;;;3.75;2.85;;;18.30;99.90;;;;;;4977958;28;20054;-75
2022/10/17 10:31:01;;;;;;;5.60;3.40;;;18.30;99.90;;;;;;4985721;28;20034;-75
2022/10/17 10:33:29;;;;;;;5.10;3.05;;;18.40;99.90;;;;;;4985162;28;20034;-75
2022/10/17 10:36:06;;;;;;;8.68;3.75;;;18.50;99.90;;;;;;4989594;28;20022;-74
2022/10/17 10:38:33;;;;;;;5.47;3.00;;;18.70;99.90;;;;;;4994314;28;20026;-75
2022/10/17 10:41:06;;;;;;;5.72;3.53;;;18.80;99.90;;;;;;4989217;28;20037;-75
2022/10/17 10:43:50;;;;;;;8.10;3.63;;;19.00;99.90;;;;;;4979191;28;20115;-74
2022/10/17 10:46:26;;;;;;;5.68;3.40;;;19.00;99.90;;;;;;4990952;28;20113;-75
2022/10/17 10:48:58;;;;;;;3.30;2.90;;;19.10;99.90;;;;;;4994120;28;20065;-74
2022/10/17 10:51:39;;;;;;;5.15;3.22;;;19.00;99.90;;;;;;4991710;28;20035;-74
2022/10/17 10:54:24;;;;;;;8.00;3.42;;;19.00;99.90;;;;;;4977922;28;20465;-75
2022/10/17 10:56:52;;;;;;;5.10;3.40;;;18.90;99.90;;;;;;4972565;28;20027;-74
2022/10/17 10:59:36;;;;;;;6.40;3.85;;;18.90;99.90;;;;;;4974835;28;20081;-75
2022/10/17 11:03:03;;;;;;;5.13;3.20;;;18.90;99.90;;;;;;4988704;28;20053;-74
2022/10/17 11:05:43;;;;;;;5.90;4.32;;;18.80;99.90;;;;;;4903788;29;20067;-74
2022/10/17 11:08:44;;;;;;;6.00;3.73;;;18.80;99.90;;;;;;4920894;29;20036;-75
2022/10/17 11:11:31;;;;;;;5.07;3.60;;;18.70;99.90;;;;;;4982781;28;20120;-74
2022/10/17 11:14:24;;;;;;;6.40;4.07;;;18.80;99.90;;;;;;4990659;28;20038;-75
2022/10/17 11:17:16;;;;;;;12.73;5.47;;;18.80;99.90;;;;;;4978578;28;20035;-75
2022/10/17 11:20:08;;;;;;;9.35;5.55;;;18.80;99.90;;;;;;4971167;28;20105;-75
2022/10/17 11:22:46;;;;;;;8.50;4.53;;;18.80;99.90;;;;;;4961864;28;20088;-75
2022/10/17 11:25:31;;;;;;;5.97;4.10;;;18.70;99.90;;;;;;4989096;28;20169;-75
2022/10/17 11:27:57;;;;;;;8.50;4.03;;;18.70;99.90;;;;;;4993855;28;20037;-74
2022/10/17 11:30:27;;;;;;;7.85;3.72;;;18.80;99.90;;;;;;4986441;28;20053;-74
2022/10/17 11:32:58;;;;;;;6.25;3.45;;;18.90;99.90;;;;;;4992227;28;20430;-74
2022/10/17 11:35:29;;;;;;;4.97;3.13;;;18.80;99.90;;;;;;4975187;28;20074;-74
2022/10/17 11:38:29;;;;;;;6.85;3.70;;;18.80;99.90;;;;;;4971034;28;20030;-74
2022/10/17 11:40:58;;;;;;;3.20;2.90;;;18.80;99.90;;;;;;4989991;28;20026;-74
2022/10/17 11:44:00;;;;;;;6.38;3.28;;;18.90;99.90;;;;;;4998663;28;20282;-74
2022/10/17 11:46:27;;;;;;;6.82;2.85;;;19.00;99.90;;;;;;4958621;28;20551;-74
2022/10/17 11:49:00;;;;;;;7.38;3.95;;;19.00;99.90;;;;;;4977701;28;20072;-75
2022/10/17 11:51:25;;;;;;;5.03;3.70;;;18.90;99.90;;;;;;4994930;28;20057;-75
2022/10/17 11:54:23;;;;;;;5.05;3.20;;;18.90;99.90;;;;;;5008975;28;20263;-75
2022/10/17 11:57:27;;;;;;;7.88;3.65;;;18.90;99.90;;;;;;4975176;28;20474;-75
2022/10/17 11:59:57;;;;;;;325.92;243.02;;;18.90;99.90;;;;;;4997596;28;20407;-74
2022/10/17 12:02:23;;;;;;;;;;;18.90;99.90;;;;;;4991283;28;20441;-75
2022/10/17 12:05:01;;;;;;;366.17;279.13;;;18.70;99.90;;;;;;4996320;28;19941;-75
2022/10/17 12:08:06;;;;;;;66.60;43.97;;;18.60;99.90;;;;;;4995384;28;20030;-75
2022/10/17 12:10:35;;;;;;;12.98;9.13;;;18.30;99.90;;;;;;4975520;28;20030;-75
2022/10/17 12:13:29;;;;;;;9.80;5.90;;;18.00;99.90;;;;;;4985159;28;20035;-75
2022/10/17 12:15:55;;;;;;;10.50;5.80;;;17.70;99.90;;;;;;4998058;28;20007;-74
2022/10/17 12:18:26;;;;;;;16.50;6.03;;;17.50;99.90;;;;;;4993126;28;20022;-75
2022/10/17 12:20:58;;;;;;;8.40;5.70;;;17.40;99.90;;;;;;4996117;28;20041;-75
2022/10/17 12:23:31;;;;;;;8.13;5.80;;;17.40;99.90;;;;;;5000415;28;20026;-75
2022/10/17 12:26:00;;;;;;;6.35;5.22;;;17.30;99.90;;;;;;4977422;28;20030;-75
2022/10/17 12:28:28;;;;;;;8.02;5.68;;;17.20;99.90;;;;;;4991418;28;20612;-75
2022/10/17 12:31:08;;;;;;;9.00;5.85;;;17.10;99.90;;;;;;4995241;28;20034;-74
2022/10/17 12:34:14;;;;;;;9.95;6.25;;;17.10;99.90;;;;;;4989687;28;20498;-75
2022/10/17 12:36:41;;;;;;;13.43;7.10;;;17.10;99.90;;;;;;4927226;29;20031;-76
2022/10/17 12:39:10;;;;;;;8.15;5.50;;;17.00;99.90;;;;;;4928240;29;20435;-75
2022/10/17 12:41:38;;;;;;;10.05;6.75;;;17.00;99.90;;;;;;4900217;29;20555;-76
2022/10/17 12:44:13;;;;;;;9.93;7.00;;;17.10;99.90;;;;;;4929581;29;21107;-75
2022/10/17 12:46:47;;;;;;;13.60;7.95;;;17.10;99.90;;;;;;4927062;29;20480;-75
2022/10/17 12:49:47;;;;;;;10.60;6.95;;;17.10;99.90;;;;;;4914014;29;20126;-75
2022/10/17 12:52:26;;;;;;;8.98;7.25;;;17.10;99.90;;;;;;4908975;29;20048;-76
2022/10/17 12:55:03;;;;;;;8.00;6.55;;;17.10;99.90;;;;;;4921222;29;20350;-77
2022/10/17 12:57:49;;;;;;;11.77;7.75;;;17.10;99.90;;;;;;4923714;29;20039;-77
2022/10/17 13:00:26;;;;;;;8.88;7.60;;;17.10;99.90;;;;;;4929646;29;20031;-76
2022/10/17 13:02:56;;;;;;;15.27;7.00;;;17.00;99.90;;;;;;4929386;29;20118;-77
2022/10/17 13:05:32;;;;;;;8.05;6.15;;;17.00;99.90;;;;;;4936087;29;20051;-78
2022/10/17 13:08:01;;;;;;;9.32;6.38;;;17.00;99.90;;;;;;4935873;29;20039;-77
2022/10/17 13:10:31;;;;;;;9.57;6.60;;;17.00;99.90;;;;;;4950128;28;20069;-77